createdAt,value
2018-07-19T00:00:59.562Z,100659.25
2018-07-19T00:03:29.236Z,100658.18
2018-07-19T00:05:58.974Z,100661.55
2018-07-19T00:08:28.677Z,100660.97
2018-07-19T00:10:58.466Z,100660.91
2018-07-19T00:13:28.806Z,100669.71
2018-07-19T00:15:59.330Z,100665.57
2018-07-19T00:18:29.270Z,100665.73
2018-07-19T00:20:58.974Z,100664.23
2018-07-19T00:23:28.647Z,100668.34
2018-07-19T00:25:59.314Z,100669.16
2018-07-19T00:28:29.777Z,100661.56
2018-07-19T00:30:59.392Z,100662.17
2018-07-19T00:33:29.539Z,100666.12
2018-07-19T00:35:59.272Z,100666.69
2018-07-19T00:38:30.263Z,100669.97
2018-07-19T00:41:00.005Z,100668.98
2018-07-19T00:43:29.681Z,100674.28
2018-07-19T00:46:00.569Z,100673.94
2018-07-19T00:48:30.135Z,100682.20
2018-07-19T00:50:59.848Z,100673.27
2018-07-19T00:53:29.708Z,100667.71
2018-07-19T00:56:00.052Z,100668.69
2018-07-19T00:58:29.780Z,100663.28
2018-07-19T01:00:59.520Z,100662.50
2018-07-19T01:03:29.169Z,100668.41
2018-07-19T01:05:59.064Z,100666.87
2018-07-19T01:08:29.393Z,100662.47
2018-07-19T01:10:59.101Z,100666.15
2018-07-19T01:13:30.384Z,100665.02
2018-07-19T01:16:00.106Z,100665.16
2018-07-19T01:18:29.762Z,100668.41
2018-07-19T01:20:59.621Z,100662.88
2018-07-19T01:23:30.433Z,100666.88
2018-07-19T01:26:00.740Z,100657.41
2018-07-19T01:28:30.898Z,100654.41
2018-07-19T01:31:00.496Z,100657.66
2018-07-19T01:33:30.113Z,100651.91
2018-07-19T01:35:59.751Z,100657.66
2018-07-19T01:38:30.615Z,100657.13
2018-07-19T01:41:10.830Z,100650.13
2018-07-19T01:43:40.563Z,100654.84
2018-07-19T01:46:10.214Z,100650.87
2018-07-19T01:48:40.611Z,100650.33
2018-07-19T01:51:10.199Z,100646.09
2018-07-19T01:53:39.939Z,100644.19
2018-07-19T01:56:10.746Z,100650.48
2018-07-19T01:58:41.217Z,100648.00
2018-07-19T02:01:10.899Z,100649.73
2018-07-19T02:03:40.527Z,100645.84
2018-07-19T02:06:10.111Z,100647.64
2018-07-19T02:08:39.804Z,100647.04
2018-07-19T02:11:10.200Z,100650.99
2018-07-19T02:13:40.433Z,100646.61
2018-07-19T02:16:10.156Z,100649.78
2018-07-19T02:18:39.782Z,100648.09
2018-07-19T02:21:09.476Z,100656.02
2018-07-19T02:23:40.304Z,100659.97
2018-07-19T02:26:09.943Z,100662.03
2018-07-19T02:28:39.685Z,100653.39
2018-07-19T02:31:09.909Z,100657.05
2018-07-19T02:33:39.606Z,100659.69
2018-07-19T02:36:09.312Z,100657.91
2018-07-19T02:38:39.247Z,100655.69
2018-07-19T02:41:09.590Z,100650.78
2018-07-19T02:43:39.971Z,100658.25
2018-07-19T02:46:11.160Z,100654.11
2018-07-19T02:48:40.946Z,100654.88
2018-07-19T02:51:11.282Z,100656.22
2018-07-19T02:53:46.256Z,100657.23
2018-07-19T02:56:16.501Z,100660.39
2018-07-19T02:58:46.163Z,100656.54
2018-07-19T03:01:15.983Z,100664.50
2018-07-19T03:03:45.713Z,100654.50
2018-07-19T03:06:16.180Z,100661.65
2018-07-19T03:08:46.619Z,100662.62
2018-07-19T03:11:16.865Z,100665.25
2018-07-19T03:13:46.590Z,100669.43
2018-07-19T03:16:16.379Z,100672.03
2018-07-19T03:18:45.999Z,100667.15
2018-07-19T03:21:15.792Z,100670.35
2018-07-19T03:23:46.407Z,100663.34
2018-07-19T03:26:16.102Z,100666.14
2018-07-19T03:28:46.230Z,100661.79
2018-07-19T03:31:15.780Z,100670.35
2018-07-19T03:33:45.509Z,100662.60
2018-07-19T03:36:15.350Z,100667.67
2018-07-19T03:38:44.924Z,100666.14
2018-07-19T03:41:15.193Z,100670.00
2018-07-19T03:43:45.418Z,100666.06
2018-07-19T03:46:15.151Z,100667.37
2018-07-19T03:48:44.764Z,100660.80
2018-07-19T03:51:14.315Z,100656.09
2018-07-19T03:53:43.952Z,100661.17
2018-07-19T03:56:13.581Z,100664.18
2018-07-19T03:58:43.945Z,100667.37
2018-07-19T04:01:14.208Z,100669.72
2018-07-19T04:03:44.125Z,100671.30
2018-07-19T04:06:14.296Z,100671.81
2018-07-19T04:08:44.655Z,100670.23
2018-07-19T04:11:14.573Z,100666.78
2018-07-19T04:13:44.396Z,100674.31
2018-07-19T04:16:14.563Z,100672.58
2018-07-19T04:18:44.291Z,100675.60
2018-07-19T04:21:14.755Z,100667.91
2018-07-19T04:23:44.602Z,100674.37
2018-07-19T04:26:14.288Z,100680.02
2018-07-19T04:28:44.087Z,100669.16
2018-07-19T04:31:13.741Z,100668.06
2018-07-19T04:33:43.484Z,100659.52
2018-07-19T04:36:13.162Z,100657.11
2018-07-19T04:38:42.854Z,100659.15
2018-07-19T04:41:15.436Z,100662.70
2018-07-19T04:43:45.198Z,100663.30
2018-07-19T04:46:14.799Z,100663.84
2018-07-19T04:48:44.592Z,100666.50
2018-07-19T04:51:14.276Z,100666.03
2018-07-19T04:53:44.231Z,100672.13
2018-07-19T04:56:15.312Z,100670.84
2018-07-19T04:58:45.622Z,100672.81
2018-07-19T05:01:15.385Z,100675.16
2018-07-19T05:03:45.166Z,100680.10
2018-07-19T05:06:15.175Z,100675.06
2018-07-19T05:08:45.398Z,100677.47
2018-07-19T05:11:15.411Z,100677.95
2018-07-19T05:13:45.903Z,100681.98
2018-07-19T05:16:15.655Z,100675.62
2018-07-19T05:18:45.295Z,100688.02
2018-07-19T05:21:15.194Z,100680.23
2018-07-19T05:23:44.869Z,100681.21
2018-07-19T05:26:14.618Z,100678.23
2018-07-19T05:28:44.960Z,100683.19
2018-07-19T05:31:14.711Z,100682.84
2018-07-19T05:33:44.488Z,100683.94
2018-07-19T05:36:14.384Z,100688.77
2018-07-19T05:38:44.263Z,100686.50
2018-07-19T05:41:14.208Z,100684.33
2018-07-19T05:43:43.904Z,100683.81
2018-07-19T05:46:13.594Z,100686.25
2018-07-19T05:48:44.008Z,100685.14
2018-07-19T05:51:13.680Z,100679.45
2018-07-19T05:53:43.408Z,100682.73
2018-07-19T05:56:13.131Z,100682.59
2018-07-19T05:58:42.971Z,100680.24
2018-07-19T06:01:18.811Z,100685.88
2018-07-19T06:03:48.481Z,100688.52
2018-07-19T06:06:18.174Z,100678.95
2018-07-19T06:08:48.919Z,100688.52
2018-07-19T06:11:19.126Z,100694.57
2018-07-19T06:13:49.453Z,100688.58
2018-07-19T06:16:19.620Z,100680.30
2018-07-19T06:18:49.851Z,100684.16
2018-07-19T06:21:20.184Z,100685.38
2018-07-19T06:23:50.345Z,100685.10
2018-07-19T06:26:20.102Z,100695.88
2018-07-19T06:28:49.874Z,100686.45
2018-07-19T06:31:20.947Z,100681.41
2018-07-19T06:33:50.989Z,100686.09
2018-07-19T06:36:20.843Z,100683.50
2018-07-19T06:38:50.750Z,100683.36
2018-07-19T06:41:20.705Z,100681.67
2018-07-19T06:43:51.391Z,100674.55
2018-07-19T06:46:21.644Z,100685.48
2018-07-19T06:48:51.531Z,100686.02
2018-07-19T06:51:21.351Z,100681.97
2018-07-19T06:53:51.225Z,100686.05
2018-07-19T06:56:21.078Z,100684.58
2018-07-19T06:58:50.889Z,100690.00
2018-07-19T07:01:21.289Z,100682.58
2018-07-19T07:03:51.327Z,100677.66
2018-07-19T07:06:21.466Z,100680.73
2018-07-19T07:08:51.249Z,100688.59
2018-07-19T07:11:20.982Z,100681.61
2018-07-19T07:13:51.387Z,100682.32
2018-07-19T07:16:21.376Z,100676.78
2018-07-19T07:18:51.104Z,100680.49
2018-07-19T07:21:27.575Z,100685.00
2018-07-19T07:23:57.931Z,100684.09
2018-07-19T07:26:27.656Z,100687.20
2018-07-19T07:28:57.854Z,100687.02
2018-07-19T07:31:28.516Z,100688.22
2018-07-19T07:33:58.208Z,100687.30
2018-07-19T07:36:28.047Z,100690.30
2018-07-19T07:38:59.215Z,100683.41
2018-07-19T07:41:28.963Z,100691.33
2018-07-19T07:43:58.591Z,100686.00
2018-07-19T07:46:28.457Z,100689.67
2018-07-19T07:48:58.790Z,100685.88
2018-07-19T07:51:28.492Z,100695.67
2018-07-19T07:53:58.225Z,100695.55
2018-07-19T07:56:28.746Z,100699.87
2018-07-19T07:58:58.457Z,100696.24
2018-07-19T08:01:28.324Z,100697.47
2018-07-19T08:03:58.139Z,100700.96
2018-07-19T08:06:28.139Z,100690.83
2018-07-19T08:08:58.000Z,100684.50
2018-07-19T08:11:28.586Z,100696.08
2018-07-19T08:13:58.546Z,100697.78
2018-07-19T08:16:29.305Z,100704.31
2018-07-19T08:18:59.183Z,100702.16
2018-07-19T08:21:29.521Z,100699.98
2018-07-19T08:23:59.378Z,100696.62
2018-07-19T08:26:29.196Z,100705.48
2018-07-19T08:28:59.046Z,100703.14
2018-07-19T08:31:28.752Z,100703.20
2018-07-19T08:33:58.410Z,100701.55
2018-07-19T08:36:28.553Z,100708.06
2018-07-19T08:38:59.072Z,100705.20
2018-07-19T08:41:28.974Z,100703.38
2018-07-19T08:43:58.649Z,100704.81
2018-07-19T08:46:28.533Z,100699.09
2018-07-19T08:48:58.345Z,100693.72
2018-07-19T08:51:28.824Z,100693.67
2018-07-19T08:53:59.222Z,100693.20
2018-07-19T08:56:29.756Z,100689.44
2018-07-19T08:58:59.639Z,100694.47
2018-07-19T09:01:29.657Z,100702.22
2018-07-19T09:03:59.540Z,100690.66
2018-07-19T09:06:29.517Z,100689.36
2018-07-19T09:08:59.536Z,100695.03
2018-07-19T09:11:29.828Z,100693.25
2018-07-19T09:13:59.695Z,100689.99
2018-07-19T09:16:29.682Z,100682.00
2018-07-19T09:18:59.411Z,100685.50
2018-07-19T09:21:29.183Z,100681.91
2018-07-19T09:23:59.000Z,100678.97
2018-07-19T09:26:28.646Z,100685.92
2018-07-19T09:28:58.819Z,100683.41
2018-07-19T09:31:29.378Z,100678.72
2018-07-19T09:33:59.158Z,100676.58
2018-07-19T09:36:28.928Z,100674.52
2018-07-19T09:38:58.787Z,100682.45
2018-07-19T09:41:28.873Z,100673.70
2018-07-19T09:43:59.422Z,100675.48
2018-07-19T09:46:29.251Z,100670.52
2018-07-19T09:48:59.086Z,100667.43
2018-07-19T09:51:28.672Z,100671.86
2018-07-19T09:53:59.114Z,100679.95
2018-07-19T09:56:29.189Z,100664.66
2018-07-19T09:58:59.080Z,100658.77
2018-07-19T10:01:28.854Z,100663.18
2018-07-19T10:03:58.621Z,100655.03
2018-07-19T10:06:28.336Z,100658.33
2018-07-19T10:08:58.124Z,100650.37
2018-07-19T10:11:27.772Z,100653.77
2018-07-19T10:13:58.187Z,100658.88
2018-07-19T10:16:27.924Z,100648.75
2018-07-19T10:18:57.580Z,100645.74
2018-07-19T10:21:27.218Z,100651.71
2018-07-19T10:23:57.305Z,100646.58
2018-07-19T10:26:27.685Z,100649.14
2018-07-19T10:28:57.747Z,100653.69
2018-07-19T10:31:27.547Z,100647.53
2018-07-19T10:33:57.246Z,100648.99
2018-07-19T10:36:27.054Z,100641.94
2018-07-19T10:38:56.717Z,100648.39
2018-07-19T10:41:26.585Z,100640.27
2018-07-19T10:43:57.012Z,100635.42
2018-07-19T10:46:26.723Z,100641.02
2018-07-19T10:48:56.368Z,100638.20
2018-07-19T10:51:26.011Z,100630.00
2018-07-19T10:53:55.735Z,100631.83
2018-07-19T10:56:25.476Z,100633.02
2018-07-19T10:58:55.216Z,100625.97
2018-07-19T11:01:24.889Z,100633.06
2018-07-19T11:03:54.592Z,100635.56
2018-07-19T11:06:24.898Z,100627.04
2018-07-19T11:08:54.668Z,100626.71
2018-07-19T11:11:24.372Z,100615.16
2018-07-19T11:14:01.482Z,100625.68
2018-07-19T11:16:31.549Z,100618.38
2018-07-19T11:19:01.759Z,100617.25
2018-07-19T11:21:31.467Z,100624.45
2018-07-19T11:24:01.892Z,100615.63
2018-07-19T11:26:32.503Z,100617.97
2018-07-19T11:29:02.749Z,100613.14
2018-07-19T11:31:32.437Z,100611.88
2018-07-19T11:34:02.221Z,100617.75
2018-07-19T11:36:32.100Z,100613.20
2018-07-19T11:39:02.507Z,100611.05
2018-07-19T11:41:33.327Z,100604.90
2018-07-19T11:44:02.962Z,100603.08
2018-07-19T11:46:32.631Z,100603.35
2018-07-19T11:49:02.308Z,100614.52
2018-07-19T11:51:33.292Z,100602.68
2018-07-19T11:54:03.588Z,100594.34
2018-07-19T11:56:33.584Z,100587.40
2018-07-19T11:59:03.863Z,100599.47
2018-07-19T12:01:33.489Z,100593.42
2018-07-19T12:04:03.215Z,100592.38
2018-07-19T12:06:32.875Z,100584.20
2018-07-19T12:09:02.608Z,100586.18
2018-07-19T12:11:32.345Z,100576.72
2018-07-19T12:14:02.191Z,100575.26
2018-07-19T12:16:31.750Z,100572.59
2018-07-19T12:19:01.468Z,100577.44
2018-07-19T12:21:31.204Z,100574.20
2018-07-19T12:24:00.973Z,100560.67
2018-07-19T12:26:31.128Z,100575.11
2018-07-19T12:29:01.436Z,100563.38
2018-07-19T12:31:31.479Z,100557.34
2018-07-19T12:34:01.869Z,100559.74
2018-07-19T12:36:31.565Z,100563.66
2018-07-19T12:39:01.240Z,100559.11
2018-07-19T12:41:30.990Z,100561.97
2018-07-19T12:44:00.728Z,100564.53
2018-07-19T12:46:30.465Z,100562.05
2018-07-19T12:49:00.367Z,100552.65
2018-07-19T12:51:30.350Z,100561.66
2018-07-19T12:54:00.067Z,100559.19
2018-07-19T12:56:29.886Z,100554.23
2018-07-19T12:58:59.810Z,100555.55
2018-07-19T13:01:30.030Z,100551.61
2018-07-19T13:03:59.673Z,100547.84
2018-07-19T13:06:29.465Z,100552.83
2018-07-19T13:08:59.197Z,100549.56
2018-07-19T13:11:28.989Z,100549.77
2018-07-19T13:13:59.705Z,100548.27
2018-07-19T13:16:29.609Z,100548.64
2018-07-19T13:18:59.344Z,100543.66
2018-07-19T13:21:29.359Z,100547.78
2018-07-19T13:23:59.010Z,100547.95
2018-07-19T13:26:29.019Z,100538.95
2018-07-19T13:28:59.476Z,100523.17
2018-07-19T13:31:29.272Z,100539.89
2018-07-19T13:33:58.880Z,100530.30
2018-07-19T13:36:28.695Z,100540.96
2018-07-19T13:38:59.306Z,100536.48
2018-07-19T13:41:28.994Z,100543.28
2018-07-19T13:43:58.596Z,100531.03
2018-07-19T13:46:28.200Z,100525.94
2018-07-19T13:48:57.838Z,100522.92
2018-07-19T13:51:27.538Z,100520.97
2018-07-19T13:54:25.460Z,100524.44
2018-07-19T13:56:55.133Z,100520.67
2018-07-19T13:59:24.889Z,100527.33
2018-07-19T14:01:55.026Z,100528.58
2018-07-19T14:04:24.647Z,100526.70
2018-07-19T14:06:55.704Z,100522.89
2018-07-19T14:09:25.433Z,100521.84
2018-07-19T14:11:55.202Z,100521.56
2018-07-19T14:14:25.044Z,100522.73
2018-07-19T14:16:54.647Z,100514.60
2018-07-19T14:19:24.293Z,100511.98
2018-07-19T14:21:53.910Z,100512.80
2018-07-19T14:24:23.509Z,100507.74
2018-07-19T14:26:53.190Z,100503.42
2018-07-19T14:29:22.841Z,100506.16
2018-07-19T14:31:52.677Z,100512.38
2018-07-19T14:34:22.365Z,100506.94
2018-07-19T14:36:52.164Z,100508.80
2018-07-19T14:39:21.925Z,100509.36
2018-07-19T14:41:51.653Z,100508.72
2018-07-19T14:44:21.675Z,100498.59
2018-07-19T14:46:51.344Z,100504.94
2018-07-19T14:49:22.487Z,100501.52
2018-07-19T14:51:52.175Z,100500.14
2018-07-19T14:54:21.908Z,100497.95
2018-07-19T14:56:51.725Z,100497.30
2018-07-19T14:59:21.458Z,100496.99
2018-07-19T15:01:51.036Z,100496.50
2018-07-19T15:04:20.775Z,100499.53
2018-07-19T15:06:50.579Z,100489.44
2018-07-19T15:09:20.371Z,100487.97
2018-07-19T15:11:50.835Z,100491.73
2018-07-19T15:14:21.054Z,100494.44
2018-07-19T15:16:51.383Z,100484.66
2018-07-19T15:19:21.193Z,100489.22
2018-07-19T15:21:50.838Z,100482.98
2018-07-19T15:24:20.197Z,100484.02
2018-07-19T15:26:50.553Z,100475.81
2018-07-19T15:29:20.460Z,100481.05
2018-07-19T15:31:50.617Z,100467.09
2018-07-19T15:34:20.442Z,100467.97
2018-07-19T15:36:50.209Z,100466.41
2018-07-19T15:39:21.290Z,100470.23
2018-07-19T15:41:51.048Z,100463.38
2018-07-19T15:44:20.837Z,100465.13
2018-07-19T15:46:50.876Z,100461.09
2018-07-19T15:49:20.640Z,100466.67
2018-07-19T15:51:51.411Z,100460.81
2018-07-19T15:54:21.288Z,100459.38
2018-07-19T15:56:50.957Z,100457.76
2018-07-19T15:59:20.804Z,100454.47
2018-07-19T16:01:51.060Z,100452.34
2018-07-19T16:04:21.102Z,100453.91
2018-07-19T16:06:51.466Z,100450.07
2018-07-19T16:09:20.829Z,100455.31
2018-07-19T16:11:50.752Z,100451.98
2018-07-19T16:14:21.084Z,100445.00
2018-07-19T16:16:50.780Z,100441.21
2018-07-19T16:19:20.514Z,100437.69
2018-07-19T16:21:50.171Z,100439.23
2018-07-19T16:24:19.900Z,100436.82
2018-07-19T16:26:50.158Z,100441.52
2018-07-19T16:29:20.297Z,100433.34
2018-07-19T16:31:49.966Z,100443.25
2018-07-19T16:34:19.713Z,100432.02
2018-07-19T16:36:49.412Z,100427.45
2018-07-19T16:39:19.878Z,100430.62
2018-07-19T16:41:49.602Z,100427.33
2018-07-19T16:44:19.536Z,100421.55
2018-07-19T16:46:49.373Z,100421.92
2018-07-19T16:49:19.832Z,100417.59
2018-07-19T16:51:49.724Z,100421.44
2018-07-19T16:54:19.415Z,100420.08
2018-07-19T16:56:49.383Z,100419.83
2018-07-19T16:59:19.063Z,100414.19
2018-07-19T17:01:48.951Z,100420.72
2018-07-19T17:04:18.749Z,100414.98
2018-07-19T17:06:49.178Z,100416.58
2018-07-19T17:09:18.856Z,100411.34
2018-07-19T17:11:48.892Z,100418.71
2018-07-19T17:14:18.625Z,100410.78
2018-07-19T17:16:48.246Z,100409.66
2018-07-19T17:19:17.927Z,100408.09
2018-07-19T17:21:48.314Z,100413.50
2018-07-19T17:24:17.992Z,100408.53
2018-07-19T17:26:47.724Z,100408.41
2018-07-19T17:29:17.413Z,100405.44
2018-07-19T17:31:47.308Z,100403.53
2018-07-19T17:34:16.996Z,100397.38
2018-07-19T17:36:46.744Z,100402.20
2018-07-19T17:39:16.430Z,100404.40
2018-07-19T17:41:46.157Z,100402.28
2018-07-19T17:44:16.048Z,100403.72
2018-07-19T17:46:45.754Z,100401.19
2018-07-19T17:49:15.620Z,100399.41
2018-07-19T17:51:45.553Z,100396.45
2018-07-19T17:54:15.892Z,100398.49
2018-07-19T17:56:45.573Z,100394.13
2018-07-19T17:59:15.532Z,100389.02
2018-07-19T18:01:45.363Z,100387.44
2018-07-19T18:04:15.868Z,100385.21
2018-07-19T18:06:45.638Z,100382.06
2018-07-19T18:09:15.498Z,100378.44
2018-07-19T18:11:45.201Z,100376.18
2018-07-19T18:14:15.090Z,100375.80
2018-07-19T18:16:44.886Z,100374.44
2018-07-19T18:19:14.703Z,100375.66
2018-07-19T18:21:44.655Z,100374.41
2018-07-19T18:24:15.704Z,100370.92
2018-07-19T18:26:45.968Z,100368.23
2018-07-19T18:29:15.763Z,100368.61
2018-07-19T18:31:45.439Z,100363.28
2018-07-19T18:34:15.295Z,100359.96
2018-07-19T18:36:45.630Z,100362.23
2018-07-19T18:39:15.434Z,100367.06
2018-07-19T18:41:46.064Z,100370.06
2018-07-19T18:44:16.088Z,100372.64
2018-07-19T18:46:45.928Z,100364.58
2018-07-19T18:49:15.986Z,100362.54
2018-07-19T18:51:45.777Z,100361.03
2018-07-19T18:54:15.905Z,100364.64
2018-07-19T18:56:45.780Z,100362.66
2018-07-19T18:59:15.894Z,100360.09
2018-07-19T19:01:45.615Z,100363.15
2018-07-19T19:04:15.897Z,100363.54
2018-07-19T19:06:45.628Z,100360.44
2018-07-19T19:09:16.237Z,100359.25
2018-07-19T19:11:45.967Z,100358.77
2018-07-19T19:14:15.739Z,100360.23
2018-07-19T19:16:45.433Z,100359.52
2018-07-19T19:19:15.848Z,100362.30
2018-07-19T19:21:45.735Z,100357.83
2018-07-19T19:24:17.055Z,100361.98
2018-07-19T19:26:46.840Z,100370.47
2018-07-19T19:29:17.632Z,100373.63
2018-07-19T19:31:47.892Z,100369.09
2018-07-19T19:34:18.549Z,100366.48
2018-07-19T19:36:48.557Z,100374.41
2018-07-19T19:39:19.456Z,100376.94
2018-07-19T19:41:49.229Z,100377.17
2018-07-19T19:44:18.991Z,100375.75
2018-07-19T19:46:49.372Z,100383.77
2018-07-19T19:49:19.143Z,100382.48
2018-07-19T19:51:48.832Z,100382.05
2018-07-19T19:54:18.757Z,100378.22
2018-07-19T19:56:48.399Z,100381.39
2018-07-19T19:59:18.107Z,100380.44
2018-07-19T20:01:48.596Z,100374.56
2018-07-19T20:04:18.377Z,100378.41
2018-07-19T20:06:48.014Z,100381.55
2018-07-19T20:09:17.771Z,100377.06
2018-07-19T20:11:47.435Z,100380.70
2018-07-19T20:14:17.529Z,100379.69
2018-07-19T20:16:47.193Z,100379.46
2018-07-19T20:19:17.892Z,100381.33
2018-07-19T20:21:47.608Z,100381.14
2018-07-19T20:24:18.295Z,100370.34
2018-07-19T20:26:48.554Z,100375.83
2018-07-19T20:29:18.337Z,100376.43
2018-07-19T20:31:48.139Z,100375.88
2018-07-19T20:34:20.449Z,100376.17
2018-07-19T20:36:48.467Z,100376.69
2018-07-19T20:39:18.436Z,100375.05
2018-07-19T20:41:48.789Z,100377.41
2018-07-19T20:44:19.293Z,100374.47
2018-07-19T20:46:48.993Z,100372.86
2018-07-19T20:49:19.318Z,100379.88
2018-07-19T20:51:49.368Z,100371.77
2018-07-19T20:54:23.642Z,100367.22
2018-07-19T20:56:53.581Z,100377.27
2018-07-19T20:59:23.551Z,100378.67
2018-07-19T21:01:52.980Z,100371.92
2018-07-19T21:04:22.746Z,100376.81
2018-07-19T21:06:52.728Z,100376.58
2018-07-19T21:09:22.349Z,100377.97
2018-07-19T21:11:52.169Z,100375.02
2018-07-19T21:14:22.721Z,100380.98
2018-07-19T21:16:52.475Z,100375.30
2018-07-19T21:19:22.761Z,100388.30
2018-07-19T21:21:52.414Z,100386.41
2018-07-19T21:24:22.146Z,100376.70
2018-07-19T21:26:51.829Z,100380.46
2018-07-19T21:29:21.452Z,100381.02
2018-07-19T21:31:51.176Z,100384.27
2018-07-19T21:34:20.903Z,100388.58
2018-07-19T21:36:52.094Z,100380.99
2018-07-19T21:39:21.753Z,100378.30
2018-07-19T21:41:51.429Z,100382.11
2018-07-19T21:44:21.437Z,100377.22
2018-07-19T21:46:51.982Z,100380.48
2018-07-19T21:49:21.982Z,100388.05
2018-07-19T21:51:51.680Z,100381.59
2018-07-19T21:54:21.412Z,100383.47
2018-07-19T21:56:51.661Z,100383.21
2018-07-19T21:59:21.327Z,100385.60
2018-07-19T22:01:51.163Z,100375.63
2018-07-19T22:04:21.116Z,100376.99
2018-07-19T22:06:50.956Z,100375.63
2018-07-19T22:09:22.806Z,100385.61
2018-07-19T22:11:53.114Z,100376.17
2018-07-19T22:14:22.951Z,100377.80
2018-07-19T22:16:52.880Z,100375.10
2018-07-19T22:19:22.635Z,100375.36
2018-07-19T22:21:53.758Z,100382.11
2018-07-19T22:24:23.661Z,100380.20
2018-07-19T22:26:53.435Z,100383.98
2018-07-19T22:29:23.099Z,100384.52
2018-07-19T22:31:53.306Z,100379.89
2018-07-19T22:34:22.982Z,100388.27
2018-07-19T22:36:52.884Z,100389.87
2018-07-19T22:39:23.165Z,100390.11
2018-07-19T22:41:52.999Z,100388.17
2018-07-19T22:44:22.688Z,100387.89
2018-07-19T22:46:53.750Z,100385.98
2018-07-19T22:49:23.656Z,100391.38
2018-07-19T22:51:54.143Z,100398.64
2018-07-19T22:54:24.332Z,100394.60
2018-07-19T22:56:53.940Z,100392.70
2018-07-19T22:59:23.569Z,100388.36
2018-07-19T23:01:53.280Z,100394.00
2018-07-19T23:04:22.917Z,100392.11
2018-07-19T23:06:53.143Z,100393.42
2018-07-19T23:09:23.395Z,100391.50
2018-07-19T23:11:53.015Z,100392.31
2018-07-19T23:14:22.776Z,100395.52
2018-07-19T23:16:52.511Z,100390.11
2018-07-19T23:19:22.823Z,100396.81
2018-07-19T23:21:52.596Z,100388.70
2018-07-19T23:24:22.784Z,100389.75
2018-07-19T23:26:52.450Z,100394.57
2018-07-19T23:29:22.787Z,100390.27
2018-07-19T23:31:52.455Z,100392.39
2018-07-19T23:34:23.750Z,100386.73
2018-07-19T23:36:57.674Z,100381.31
2018-07-19T23:39:33.766Z,100374.84
2018-07-19T23:42:39.897Z,100385.02
2018-07-19T23:45:14.915Z,100376.90
2018-07-19T23:47:45.275Z,100382.28
2018-07-19T23:50:15.207Z,100381.17
2018-07-19T23:52:44.947Z,100381.98
2018-07-19T23:55:14.746Z,100381.45
2018-07-19T23:57:44.335Z,100379.56
